Meadow Lake, CO

10:56 AM MDT on June 23, 2017 (GMT -0600)
Meadow Lake

Weather History for KFLY - April, 2013

Change the Weather History Date:

Wednesday, April 10, 2013

  Actual Average (KCOS) Record (KCOS)
Temperature  
Mean Temperature 16 °F -  
Max Temperature 28 °F 60 °F 81 °F (1960)
Min Temperature 3 °F 30 °F -3 °F (1959)
Degree Days  
Heating Degree Days 50    
Moisture  
Dew Point 7 °F    
Average Humidity 67    
Maximum Humidity 81    
Minimum Humidity 49    
Precipitation  
Precipitation 0.00 in - - ()
Sea Level Pressure  
Sea Level Pressure 29.93 in    
Wind  
Wind Speed 11 mph (NNW)    
Max Wind Speed 21 mph    
Max Gust Speed 28 mph    
Visibility 10 miles    
Events Snow    
Averages and records for this station are not official NWS values.
T = Trace of Precipitation, MM = Missing Value Source: NWS Daily Summary

Daily Weather History Graph

Daily Weather History Graph

Search for Another Location

Airport or City:

Trip Planner

Search our weather history database for the weather conditions in past years. The results will help you decide how hot, cold, wet, or windy it might be!

Date:

Astronomy

Apr. 10, 2013 Rise Set
Actual Time 6:28 AM MDT 7:30 PM MDT
Civil Twilight 6:01 AM MDT 7:58 PM MDT
Nautical Twilight 5:28 AM MDT 8:30 PM MDT
Astronomical Twilight 4:55 AM MDT 9:04 PM MDT
Moon 6:26 AM MDT (4/10) 8:08 PM MDT (4/10)
Length of Visible Light 13h 56m
Length of Day
13h 02m
New Moon, 0% of the Moon is Illuminated
Apr 10
New Moon
Apr 18
First Quarter
Apr 25
Full
May 2
Last Quarter
May 9
New

Hourly Weather History & Observations

Time (MDT) Temp. Windchill Dew Point Humidity Pressure Visibility Wind Dir Wind Speed Gust Speed Precip Events Conditions
12:15 AM 5.9 °F -3.0 °F -0.0 °F 77% 29.99 in 7.0 mi East 4.6 mph - N/A   Scattered Clouds
12:35 AM 5.9 °F -8.9 °F 0.3 °F 78% 29.99 in 10.0 mi NNE 10.4 mph - N/A   Overcast
12:55 AM 5.5 °F -12.9 °F 0.5 °F 80% 29.98 in 7.0 mi North 16.1 mph 23.0 mph N/A   Overcast
1:15 AM 5.4 °F -7.6 °F -0.2 °F 78% 30.00 in 7.0 mi North 8.1 mph - N/A   Overcast
1:35 AM 5.4 °F -10.4 °F -0.6 °F 76% 29.99 in 10.0 mi NNW 11.5 mph 19.6 mph N/A   Scattered Clouds
1:55 AM 5.0 °F -8.1 °F -0.8 °F 77% 29.99 in 10.0 mi North 8.1 mph - N/A   Clear
2:15 AM 4.8 °F -11.8 °F -1.3 °F 76% 29.98 in 10.0 mi NNW 12.7 mph - N/A   Clear
2:35 AM 5.0 °F -13.6 °F -1.5 °F 75% 29.95 in 10.0 mi North 16.1 mph 24.2 mph N/A   Clear
2:55 AM 5.4 °F -12.5 °F -1.3 °F 74% 29.94 in 10.0 mi North 15.0 mph 27.6 mph N/A   Clear
3:15 AM 5.4 °F -13.1 °F -1.3 °F 74% 29.95 in 10.0 mi North 16.1 mph 24.2 mph N/A   Clear
3:35 AM 5.0 °F -6.9 °F -1.3 °F 75% 29.99 in 10.0 mi North 6.9 mph - N/A   Clear
3:55 AM 4.6 °F -9.5 °F -1.3 °F 76% 29.99 in 10.0 mi NNW 9.2 mph - N/A   Scattered Clouds
4:15 AM 4.3 °F -10.9 °F -1.5 °F 77% 29.98 in 10.0 mi NNW 10.4 mph 18.4 mph N/A   Clear
4:35 AM 4.1 °F -10.2 °F -1.7 °F 77% 29.97 in 10.0 mi North 9.2 mph - N/A   Clear
4:55 AM 3.9 °F -6.9 °F -1.8 °F 77% 29.96 in 10.0 mi North 5.8 mph - N/A   Clear
5:15 AM 3.4 °F -7.5 °F -2.2 °F 78% 29.95 in 10.0 mi NNW 5.8 mph - N/A   Clear
5:35 AM 3.7 °F -5.5 °F -2.0 °F 77% 29.95 in 10.0 mi NW 4.6 mph - N/A   Clear
5:55 AM 4.8 °F -9.3 °F -1.3 °F 76% 29.96 in 10.0 mi NNW 9.2 mph - N/A   Clear
6:15 AM 5.0 °F -2.1 °F -1.7 °F 74% 29.96 in 10.0 mi NNW 3.5 mph - N/A   Clear
6:35 AM 5.2 °F -6.7 °F -1.1 °F 75% 29.96 in 10.0 mi NW 6.9 mph - N/A   Clear
6:55 AM 7.7 °F -5.8 °F -0.0 °F 71% 29.95 in 10.0 mi NNW 9.2 mph - N/A   Clear
7:15 AM 9.3 °F -2.8 °F 0.9 °F 69% 29.95 in 10.0 mi NNW 8.1 mph - N/A   Scattered Clouds
7:35 AM 8.8 °F -6.1 °F 0.5 °F 69% 29.95 in 10.0 mi NNW 11.5 mph - N/A   Scattered Clouds
7:55 AM 11.1 °F 0.4 °F 1.8 °F 66% 29.97 in 10.0 mi NNW 6.9 mph 16.1 mph N/A   Clear
8:15 AM 11.7 °F 0.0 °F 2.5 °F 67% 29.96 in 10.0 mi North 8.1 mph - N/A   Clear
8:35 AM 12.6 °F 1.1 °F 3.2 °F 66% 29.96 in 10.0 mi North 8.1 mph - N/A   Clear
8:55 AM 12.9 °F -0.2 °F 3.4 °F 66% 29.98 in 10.0 mi North 10.4 mph 17.3 mph N/A   Clear
9:15 AM 14.2 °F 1.4 °F 3.9 °F 64% 29.97 in 10.0 mi North 10.4 mph 17.3 mph N/A   Clear
9:35 AM 16.7 °F 7.2 °F 5.5 °F 62% 29.98 in 10.0 mi North 6.9 mph - N/A   Clear
9:55 AM 17.1 °F 8.7 °F 7.0 °F 65% 29.97 in 10.0 mi North 5.8 mph - N/A   Clear
10:15 AM 19.9 °F 7.9 °F 6.3 °F 55% 29.97 in 10.0 mi North 11.5 mph - N/A   Clear
10:35 AM 20.7 °F 6.1 °F 7.0 °F 56% 29.96 in 10.0 mi North 17.3 mph 21.9 mph N/A   Clear
10:55 AM 21.6 °F 7.3 °F 7.3 °F 54% 29.96 in 10.0 mi North 17.3 mph 27.6 mph N/A   Clear
11:15 AM 23.0 °F 8.7 °F 8.6 °F 54% 29.96 in 10.0 mi North 18.4 mph 21.9 mph N/A   Clear
11:35 AM 23.9 °F 10.3 °F 10.0 °F 56% 29.94 in 10.0 mi North 17.3 mph 27.6 mph N/A   Clear
11:55 AM 24.1 °F 9.4 °F 10.4 °F 56% 29.94 in 10.0 mi North 20.7 mph 26.5 mph N/A   Clear
12:15 PM 23.5 °F 8.7 °F 10.0 °F 56% 29.94 in 10.0 mi North 20.7 mph 26.5 mph N/A   Clear
12:35 PM 25.2 °F 12.4 °F 11.1 °F 55% 29.94 in 10.0 mi North 16.1 mph 21.9 mph N/A   Clear
12:55 PM 27.5 °F 16.3 °F 12.4 °F 53% 29.92 in 10.0 mi North 13.8 mph 19.6 mph N/A   Clear
1:15 PM 28.4 °F 17.5 °F 12.6 °F 52% 29.92 in 10.0 mi North 13.8 mph 20.7 mph N/A   Clear
1:35 PM 26.8 °F 13.3 °F 10.4 °F 50% 29.92 in 10.0 mi North 19.6 mph 25.3 mph N/A   Clear
1:55 PM 24.3 °F 10.8 °F 10.6 °F 56% 29.92 in 10.0 mi North 17.3 mph 23.0 mph N/A   Clear
2:15 PM 26.1 °F 13.1 °F 11.5 °F 54% 29.92 in 10.0 mi North 17.3 mph 23.0 mph N/A   Clear
2:35 PM 28.4 °F 16.2 °F 12.4 °F 51% 29.91 in 10.0 mi North 17.3 mph 23.0 mph N/A   Clear
2:55 PM 28.8 °F 17.0 °F 11.7 °F 49% 29.90 in 10.0 mi North 16.1 mph 21.9 mph N/A   Scattered Clouds
3:15 PM 27.9 °F 14.7 °F 13.1 °F 54% 29.90 in 10.0 mi North 19.6 mph 25.3 mph N/A   Mostly Cloudy
3:35 PM 26.4 °F 12.5 °F 12.9 °F 57% 29.89 in 10.0 mi North 20.7 mph 27.6 mph N/A   Scattered Clouds
3:55 PM 25.3 °F 11.8 °F 12.6 °F 58% 29.88 in 10.0 mi North 18.4 mph 27.6 mph N/A   Mostly Cloudy
4:15 PM 24.4 °F 10.2 °F 12.4 °F 60% 29.88 in 10.0 mi North 19.6 mph 25.3 mph N/A   Overcast
4:35 PM 22.8 °F 8.5 °F 12.6 °F 65% 29.88 in 10.0 mi North 18.4 mph 26.5 mph N/A Snow Light Snow
4:55 PM 24.6 °F 11.3 °F 13.3 °F 62% 29.88 in 7.0 mi North 17.3 mph 24.2 mph N/A Snow Light Snow
5:15 PM 24.4 °F 11.5 °F 12.9 °F 62% 29.88 in 10.0 mi North 16.1 mph 25.3 mph N/A   Overcast
5:35 PM 24.6 °F 11.3 °F 12.4 °F 60% 29.88 in 10.0 mi North 17.3 mph 24.2 mph N/A   Mostly Cloudy
5:55 PM 25.0 °F 12.2 °F 11.8 °F 57% 29.88 in 10.0 mi North 16.1 mph 20.7 mph N/A   Clear
6:15 PM 24.1 °F 12.0 °F 11.3 °F 58% 29.88 in 10.0 mi North 13.8 mph 21.9 mph N/A   Clear
6:35 PM 23.9 °F 13.5 °F 11.7 °F 60% 29.88 in 10.0 mi North 10.4 mph 16.1 mph N/A   Clear
6:55 PM 23.0 °F 11.7 °F 11.8 °F 62% 29.88 in 10.0 mi North 11.5 mph - N/A   Clear
7:15 PM 21.9 °F 12.5 °F 12.0 °F 66% 29.88 in 10.0 mi North 8.1 mph - N/A   Clear
7:35 PM 21.0 °F 13.4 °F 11.8 °F 68% 29.89 in 10.0 mi NNW 5.8 mph - N/A   Scattered Clouds
7:55 PM 20.7 °F 15.8 °F 12.0 °F 69% 29.89 in 10.0 mi NW 3.5 mph - N/A   Scattered Clouds
8:15 PM 21.0 °F - 12.2 °F 69% 29.90 in 10.0 mi Calm Calm - N/A   Mostly Cloudy
8:35 PM 20.5 °F 15.6 °F 12.0 °F 70% 29.91 in 10.0 mi SW 3.5 mph - N/A   Mostly Cloudy
8:55 PM 19.9 °F 13.4 °F 12.0 °F 71% 29.91 in 10.0 mi WSW 4.6 mph - N/A   Scattered Clouds
9:15 PM 19.0 °F 11.1 °F 11.8 °F 74% 29.91 in 10.0 mi SW 5.8 mph - N/A   Clear
9:35 PM 18.5 °F 9.3 °F 11.8 °F 75% 29.91 in 10.0 mi WSW 6.9 mph - N/A   Clear
9:55 PM 18.5 °F 11.7 °F 11.8 °F 75% 29.91 in 10.0 mi WSW 4.6 mph - N/A   Clear
10:15 PM 18.3 °F 9.1 °F 12.0 °F 76% 29.90 in 10.0 mi WSW 6.9 mph - N/A   Clear
10:35 PM 18.0 °F 7.7 °F 11.8 °F 77% 29.89 in 10.0 mi WSW 8.1 mph - N/A   Clear
10:55 PM 18.0 °F 6.1 °F 12.0 °F 78% 29.88 in 10.0 mi WSW 10.4 mph - N/A   Clear
11:15 PM 17.6 °F 7.3 °F 11.8 °F 78% 29.88 in 10.0 mi WSW 8.1 mph - N/A   Clear
11:35 PM 17.6 °F 8.2 °F 11.7 °F 78% 29.87 in 10.0 mi WSW 6.9 mph - N/A   Clear
11:55 PM 16.7 °F 6.2 °F 11.7 °F 81% 29.87 in 10.0 mi WSW 8.1 mph - N/A   Clear